Time;durP1;ratioP1;P1;durP2;ratioP2;P2;SDS_P1;SDS_P2;PMS_P1;PMS_P2;Temp;Humidity;BMP_temperature;BMP_pressure;BME280_temperature;BME280_humidity;BME280_pressure;Samples;Min_cycle;Max_cycle;Signal;HPM_P1;HPM_P2
2022/06/09 17:23:00;;;;;;;7.95;3.30;;;20.50;47.00;;;;;;5088431;28;20401;-74
2022/06/09 17:25:25;;;;;;;6.75;1.92;;;20.40;49.10;;;;;;5069402;28;20040;-74
2022/06/09 17:27:51;;;;;;;5.95;1.67;;;20.30;48.10;;;;;;5079968;28;20719;-69
2022/06/09 17:30:17;;;;;;;7.57;1.58;;;20.40;47.90;;;;;;5080927;28;20050;-68
2022/06/09 17:32:43;;;;;;;6.15;1.40;;;20.40;48.20;;;;;;5082553;28;20079;-69
2022/06/09 17:35:09;;;;;;;6.93;1.45;;;20.30;48.50;;;;;;5082441;28;20048;-69
2022/06/09 17:37:35;;;;;;;6.88;1.70;;;20.40;48.10;;;;;;5083252;28;20067;-68
2022/06/09 17:40:01;;;;;;;5.82;1.50;;;20.40;48.00;;;;;;5083147;28;20046;-66
2022/06/09 17:42:28;;;;;;;7.82;2.45;;;20.30;48.60;;;;;;5080482;28;20039;-68
2022/06/09 17:44:54;;;;;;;6.25;1.42;;;20.30;48.80;;;;;;5080839;28;20036;-66
2022/06/09 17:47:20;;;;;;;5.82;1.13;;;20.40;48.50;;;;;;5080714;28;20037;-66
2022/06/09 17:49:46;;;;;;;7.78;2.05;;;20.30;48.90;;;;;;5079672;28;20037;-67
2022/06/09 17:52:12;;;;;;;6.78;2.42;;;20.30;49.40;;;;;;5084093;28;20083;-67
2022/06/09 17:54:38;;;;;;;5.88;1.38;;;20.30;49.20;;;;;;5081900;28;20091;-67
2022/06/09 17:57:04;;;;;;;6.75;1.50;;;20.30;48.40;;;;;;5084671;28;20044;-67
2022/06/09 17:59:30;;;;;;;7.47;1.73;;;20.20;49.20;;;;;;5080450;28;20036;-67
2022/06/09 18:01:56;;;;;;;9.45;1.45;;;20.20;49.00;;;;;;5083897;28;20040;-67
2022/06/09 18:04:21;;;;;;;6.00;1.25;;;20.20;48.80;;;;;;5046229;28;20036;-69
2022/06/09 18:06:47;;;;;;;5.65;0.90;;;20.10;48.10;;;;;;5083841;28;20535;-66
2022/06/09 18:09:13;;;;;;;6.53;1.13;;;20.10;48.10;;;;;;5081888;28;20474;-67
2022/06/09 18:11:39;;;;;;;10.25;2.13;;;20.10;48.90;;;;;;5084641;28;20075;-68
2022/06/09 18:14:08;;;;;;;4.97;1.30;;;20.00;49.30;;;;;;5081230;28;20552;-66
2022/06/09 18:16:34;;;;;;;4.75;1.15;;;20.00;48.70;;;;;;5077582;28;20083;-67
2022/06/09 18:19:00;;;;;;;4.38;1.30;;;19.90;48.40;;;;;;5073940;28;20041;-67
2022/06/09 18:21:27;;;;;;;7.70;2.05;;;19.90;48.50;;;;;;5076823;28;20068;-67
2022/06/09 18:23:53;;;;;;;6.13;1.88;;;19.90;48.50;;;;;;5077280;28;20059;-67
2022/06/09 18:26:21;;;;;;;6.70;1.67;;;19.80;48.90;;;;;;5077998;28;20033;-67
2022/06/09 18:28:47;;;;;;;6.68;1.48;;;19.70;49.00;;;;;;5078572;28;20036;-72
2022/06/09 18:31:13;;;;;;;4.00;1.20;;;19.70;49.50;;;;;;5075711;28;20055;-72
2022/06/09 18:33:41;;;;;;;2.97;1.20;;;19.60;49.80;;;;;;5066437;28;20098;-66
2022/06/09 18:36:07;;;;;;;4.30;1.02;;;19.60;50.00;;;;;;5063440;28;20132;-66
2022/06/09 18:38:33;;;;;;;7.90;1.40;;;19.60;50.10;;;;;;5063523;28;20086;-67
2022/06/09 18:41:01;;;;;;;2.92;1.20;;;19.60;50.30;;;;;;5065240;28;20040;-66
2022/06/09 18:43:26;;;;;;;7.90;1.77;;;19.50;50.50;;;;;;5043447;28;20036;-67
2022/06/09 18:45:54;;;;;;;4.00;1.25;;;19.50;50.80;;;;;;5047080;28;20040;-66
2022/06/09 18:48:25;;;;;;;6.13;1.65;;;19.50;51.10;;;;;;5064036;28;20078;-66
2022/06/09 18:50:52;;;;;;;6.38;1.40;;;19.40;51.40;;;;;;5065647;28;20049;-67
2022/06/09 18:53:18;;;;;;;4.07;1.40;;;19.40;51.60;;;;;;5064004;28;20040;-67
2022/06/09 18:55:44;;;;;;;4.20;1.27;;;19.40;51.70;;;;;;5061208;28;21427;-66
2022/06/09 18:58:11;;;;;;;5.30;1.27;;;19.40;51.80;;;;;;5064115;28;20044;-66
2022/06/09 19:00:39;;;;;;;4.47;1.13;;;19.40;51.60;;;;;;5064672;28;20036;-67
2022/06/09 19:03:09;;;;;;;4.68;1.10;;;19.30;51.60;;;;;;5063850;28;20045;-67
2022/06/09 19:05:36;;;;;;;4.88;0.95;;;19.30;51.70;;;;;;5062808;28;20044;-66
2022/06/09 19:08:02;;;;;;;3.03;1.30;;;19.20;52.00;;;;;;5065027;28;20085;-67
2022/06/09 19:10:30;;;;;;;6.32;1.35;;;19.20;52.20;;;;;;5046391;28;20036;-67
2022/06/09 19:12:57;;;;;;;4.47;1.30;;;19.10;52.40;;;;;;5063774;28;20044;-66
2022/06/09 19:15:24;;;;;;;5.50;1.30;;;19.10;52.60;;;;;;5063496;28;20043;-66
2022/06/09 19:17:50;;;;;;;4.43;1.33;;;19.10;52.80;;;;;;5063475;28;20040;-66
2022/06/09 19:20:19;;;;;;;3.78;1.02;;;19.10;53.00;;;;;;5056820;28;20053;-66
2022/06/09 19:22:45;;;;;;;4.20;1.00;;;19.10;53.10;;;;;;5055808;28;20782;-66
2022/06/09 19:25:12;;;;;;;3.50;1.35;;;19.10;53.10;;;;;;5055690;28;20052;-66
2022/06/09 19:27:38;;;;;;;3.72;1.10;;;19.10;53.10;;;;;;5057104;28;20472;-66
2022/06/09 19:30:08;;;;;;;4.10;1.40;;;19.10;53.10;;;;;;5058548;28;20037;-66
2022/06/09 19:32:35;;;;;;;4.75;1.10;;;19.10;53.20;;;;;;5060358;28;20090;-66
2022/06/09 19:35:03;;;;;;;3.88;1.60;;;19.00;53.10;;;;;;5060368;28;20052;-66
2022/06/09 19:37:29;;;;;;;4.20;1.40;;;19.00;53.20;;;;;;5061426;28;20758;-66
2022/06/09 19:39:54;;;;;;;5.72;1.10;;;19.00;53.20;;;;;;5058737;28;20052;-66
2022/06/09 19:42:20;;;;;;;4.82;1.35;;;19.00;53.30;;;;;;5057562;28;20056;-66
2022/06/09 19:44:47;;;;;;;6.95;1.40;;;19.00;53.30;;;;;;5041588;28;20040;-66
2022/06/09 19:47:29;;;;;;;3.95;1.10;;;18.90;53.30;;;;;;5056565;28;20066;-66
2022/06/09 19:49:55;;;;;;;3.92;1.02;;;19.00;53.30;;;;;;5058651;28;20094;-66
2022/06/09 19:52:21;;;;;;;4.53;1.42;;;18.90;53.70;;;;;;5058857;28;20041;-66
2022/06/09 19:54:46;;;;;;;4.60;1.10;;;18.90;53.40;;;;;;5052665;28;21775;-66
2022/06/09 19:57:17;;;;;;;6.75;1.92;;;18.90;53.40;;;;;;5073215;28;20506;-66
2022/06/09 19:59:44;;;;;;;7.72;2.45;;;18.80;53.40;;;;;;5059069;28;20123;-65
2022/06/09 20:02:14;;;;;;;5.85;2.15;;;18.80;53.60;;;;;;5056450;28;20063;-66
2022/06/09 20:04:40;;;;;;;7.30;2.40;;;18.70;53.60;;;;;;5059309;28;20047;-66
2022/06/09 20:07:06;;;;;;;5.70;2.03;;;18.70;53.80;;;;;;5057422;28;20102;-66
2022/06/09 20:09:31;;;;;;;5.75;2.47;;;18.70;54.00;;;;;;5059701;28;20773;-66
2022/06/09 20:11:57;;;;;;;7.78;3.05;;;18.60;54.10;;;;;;5057530;28;20051;-66
2022/06/09 20:14:23;;;;;;;6.63;2.25;;;18.60;54.20;;;;;;5040326;28;20055;-66
2022/06/09 20:16:48;;;;;;;6.60;2.60;;;18.50;54.30;;;;;;5059818;28;20045;-66
2022/06/09 20:19:14;;;;;;;6.47;2.55;;;18.50;54.50;;;;;;5056590;28;20044;-66
2022/06/09 20:21:40;;;;;;;8.15;3.72;;;18.50;54.60;;;;;;5058015;28;20086;-66
2022/06/09 20:24:05;;;;;;;6.35;3.28;;;18.40;54.80;;;;;;5060258;28;20051;-66
2022/06/09 20:26:31;;;;;;;8.68;3.38;;;18.30;54.80;;;;;;5057116;28;20119;-66
2022/06/09 20:28:58;;;;;;;8.98;3.60;;;18.30;55.00;;;;;;5060864;28;20037;-66
2022/06/09 20:31:28;;;;;;;7.28;3.58;;;18.20;55.10;;;;;;5057858;28;20511;-67
2022/06/09 20:33:56;;;;;;;6.65;3.40;;;18.10;55.20;;;;;;5059715;28;20041;-66
2022/06/09 20:36:24;;;;;;;7.57;2.90;;;18.10;55.20;;;;;;5056322;28;20387;-66
2022/06/09 20:38:50;;;;;;;8.63;2.45;;;18.10;55.30;;;;;;5053804;28;20072;-66
2022/06/09 20:41:18;;;;;;;6.60;2.47;;;18.00;55.40;;;;;;5057058;28;20044;-67
2022/06/09 20:43:44;;;;;;;4.43;2.08;;;18.00;55.50;;;;;;5060120;28;20049;-67
2022/06/09 20:46:17;;;;;;;5.72;1.55;;;17.90;55.60;;;;;;5056018;28;20045;-66
2022/06/09 20:48:52;;;;;;;10.55;2.13;;;17.90;55.70;;;;;;5057597;28;20044;-66
2022/06/09 20:51:18;;;;;;;;;;;17.80;55.70;;;;;;5040636;28;20162;-66
2022/06/09 20:53:47;;;;;;;5.38;1.75;;;17.70;55.60;;;;;;5027712;28;19920;-66
2022/06/09 20:56:13;;;;;;;6.15;2.00;;;17.70;55.90;;;;;;5055956;28;20238;-66
2022/06/09 20:58:39;;;;;;;5.55;1.45;;;17.60;56.00;;;;;;5057626;28;20126;-67
2022/06/09 21:01:06;;;;;;;5.80;1.83;;;17.50;56.20;;;;;;5055669;28;20044;-67
2022/06/09 21:03:33;;;;;;;6.80;2.00;;;17.50;56.30;;;;;;5058953;28;20067;-66
2022/06/09 21:06:00;;;;;;;4.63;1.50;;;17.40;56.40;;;;;;5057949;28;20036;-66
2022/06/09 21:08:26;;;;;;;7.88;1.80;;;17.40;56.60;;;;;;5060309;28;20082;-66
2022/06/09 21:19:05;;;;;;;4.20;1.67;;;17.10;57.00;;;;;;5059779;28;20553;-66
2022/06/09 21:21:31;;;;;;;4.20;1.30;;;17.00;57.10;;;;;;5043103;28;20052;-66
2022/06/09 21:23:58;;;;;;;5.38;1.48;;;17.00;57.20;;;;;;5054792;28;20060;-66
2022/06/09 21:26:23;;;;;;;5.47;1.67;;;16.90;57.30;;;;;;5058616;28;20067;-66
2022/06/09 21:28:52;;;;;;;3.83;1.10;;;16.90;57.30;;;;;;5058059;28;20036;-66
2022/06/09 21:31:18;;;;;;;7.90;1.92;;;16.80;57.40;;;;;;5057805;28;20040;-66
2022/06/09 21:33:43;;;;;;;4.22;1.30;;;16.80;57.50;;;;;;5058968;28;20568;-66
2022/06/09 21:36:09;;;;;;;5.57;1.40;;;16.70;57.50;;;;;;5057174;28;20040;-67
2022/06/09 21:38:35;;;;;;;5.57;1.20;;;16.60;57.70;;;;;;5059419;28;20435;-66
2022/06/09 21:41:02;;;;;;;5.35;1.55;;;16.60;57.80;;;;;;5055331;28;20037;-66
2022/06/09 21:43:28;;;;;;;4.18;1.33;;;16.50;57.80;;;;;;5052966;28;20040;-66
2022/06/09 21:45:54;;;;;;;6.78;1.67;;;16.40;57.90;;;;;;5055063;28;20036;-66
2022/06/09 21:48:19;;;;;;;5.85;1.20;;;16.40;58.10;;;;;;5058563;28;20036;-66
2022/06/09 21:50:45;;;;;;;6.47;2.15;;;16.30;58.20;;;;;;5056948;28;20040;-62
2022/06/09 21:53:11;;;;;;;6.95;1.42;;;16.30;58.40;;;;;;5057910;28;20118;-62
2022/06/09 21:55:38;;;;;;;8.00;1.95;;;16.20;58.50;;;;;;5061307;28;20163;-62
2022/06/09 21:58:05;;;;;;;4.43;1.20;;;16.10;58.60;;;;;;5063501;28;20045;-62
2022/06/09 22:00:41;;;;;;;4.95;1.90;;;16.10;58.80;;;;;;5060591;28;20475;-62
2022/06/09 22:03:07;;;;;;;6.95;1.85;;;16.00;59.00;;;;;;5057822;28;20055;-62
2022/06/09 22:05:33;;;;;;;7.47;1.80;;;15.90;59.20;;;;;;5063505;28;20044;-62
2022/06/09 22:07:59;;;;;;;7.82;2.40;;;15.90;59.30;;;;;;5064495;28;20102;-62
2022/06/09 22:10:27;;;;;;;5.30;2.17;;;15.80;59.50;;;;;;5065664;28;20044;-62
2022/06/09 22:12:53;;;;;;;8.38;2.10;;;15.70;59.60;;;;;;5060997;28;20097;-68
2022/06/09 22:15:19;;;;;;;4.25;1.50;;;15.70;60.10;;;;;;5063027;28;20037;-69
2022/06/09 22:17:46;;;;;;;7.65;1.88;;;15.50;59.80;;;;;;5063394;28;20048;-69
2022/06/09 22:20:25;;;;;;;9.90;2.30;;;15.50;60.00;;;;;;5062637;28;20479;-68
2022/06/09 22:22:51;;;;;;;6.13;1.88;;;15.40;60.30;;;;;;5062479;28;20044;-69
2022/06/09 22:25:17;;;;;;;9.77;2.10;;;15.30;60.30;;;;;;5066148;28;20648;-68
2022/06/09 22:27:43;;;;;;;9.70;2.63;;;15.30;60.60;;;;;;5063496;28;20045;-68
2022/06/09 22:30:13;;;;;;;6.45;1.85;;;15.20;60.90;;;;;;5064215;28;20123;-69
2022/06/09 22:32:39;;;;;;;11.05;3.08;;;15.10;61.00;;;;;;5064494;28;20055;-69
2022/06/09 22:35:06;;;;;;;9.70;3.10;;;15.10;61.10;;;;;;5065017;28;20045;-69
2022/06/09 22:37:31;;;;;;;8.15;2.97;;;15.00;61.30;;;;;;5042690;28;20055;-69
2022/06/09 22:39:59;;;;;;;7.82;2.70;;;15.00;61.30;;;;;;5053357;28;20613;-69
2022/06/09 22:42:25;;;;;;;9.38;3.28;;;14.90;61.40;;;;;;5052492;28;20058;-69
2022/06/09 22:44:51;;;;;;;10.15;3.25;;;14.90;62.00;;;;;;5053690;28;20053;-69
2022/06/09 22:47:16;;;;;;;8.18;3.25;;;14.80;61.70;;;;;;5053355;28;20060;-70
2022/06/09 22:49:42;;;;;;;6.25;3.05;;;14.70;61.90;;;;;;5054502;28;20106;-69
2022/06/09 22:52:08;;;;;;;9.75;2.95;;;14.70;62.00;;;;;;5054591;28;20067;-69
2022/06/09 22:54:34;;;;;;;6.55;3.08;;;14.60;62.20;;;;;;5053671;28;20041;-69
2022/06/09 22:57:00;;;;;;;6.72;2.35;;;14.50;62.30;;;;;;5053826;28;20052;-70
2022/06/09 22:59:26;;;;;;;9.40;3.47;;;14.50;62.60;;;;;;5053246;28;20076;-70
2022/06/09 23:01:51;;;;;;;4.63;2.10;;;14.50;62.70;;;;;;5054580;28;20097;-69
2022/06/09 23:04:17;;;;;;;6.00;2.15;;;14.40;62.80;;;;;;5053428;28;20045;-69
2022/06/09 23:06:43;;;;;;;4.22;2.30;;;14.40;62.90;;;;;;5052889;28;20080;-72
2022/06/09 23:09:08;;;;;;;5.70;1.75;;;14.40;63.00;;;;;;5052772;28;20036;-69
2022/06/09 23:11:34;;;;;;;6.10;2.00;;;14.40;63.10;;;;;;5053937;28;20077;-70
2022/06/09 23:14:00;;;;;;;5.70;2.05;;;14.40;63.20;;;;;;5054346;28;20480;-71
2022/06/09 23:16:36;;;;;;;5.53;1.80;;;14.40;63.30;;;;;;5054401;28;20199;-70
2022/06/09 23:19:03;;;;;;;6.63;2.38;;;14.40;63.40;;;;;;5052319;28;20052;-70
2022/06/09 23:21:29;;;;;;;7.22;2.40;;;14.40;63.30;;;;;;5052742;28;20076;-70
2022/06/09 23:23:54;;;;;;;4.85;2.67;;;14.50;63.40;;;;;;5053899;28;20569;-69
2022/06/09 23:26:23;;;;;;;4.05;1.80;;;14.50;63.50;;;;;;5053106;28;20071;-70
2022/06/09 23:28:49;;;;;;;4.95;1.60;;;14.50;63.50;;;;;;5053561;28;20439;-70
2022/06/09 23:31:16;;;;;;;5.28;1.80;;;14.50;63.40;;;;;;5053008;28;20151;-70
2022/06/09 23:33:42;;;;;;;5.18;1.77;;;14.50;63.30;;;;;;5054173;28;20037;-69
2022/06/09 23:36:13;;;;;;;4.22;2.15;;;14.60;63.30;;;;;;5052931;28;20041;-69
2022/06/09 23:38:40;;;;;;;4.13;1.60;;;14.50;63.30;;;;;;5053418;28;20036;-71
2022/06/09 23:41:06;;;;;;;6.43;2.30;;;14.60;63.30;;;;;;5053676;28;20056;-70
2022/06/09 23:43:32;;;;;;;4.88;1.92;;;14.60;63.30;;;;;;5053778;28;20503;-70
2022/06/09 23:45:58;;;;;;;5.30;2.15;;;14.60;63.30;;;;;;5052883;28;20045;-70
2022/06/09 23:48:32;;;;;;;6.50;2.08;;;14.60;63.20;;;;;;5053101;28;20543;-71
2022/06/09 23:51:01;;;;;;;5.85;1.85;;;14.60;63.10;;;;;;5052236;28;20074;-72
2022/06/09 23:53:28;;;;;;;4.22;1.60;;;14.60;63.00;;;;;;5052586;28;20128;-70
2022/06/09 23:55:56;;;;;;;7.45;2.28;;;14.60;63.00;;;;;;5051851;28;20099;-70
2022/06/09 23:58:23;;;;;;;7.78;2.58;;;14.60;62.90;;;;;;5053519;28;20037;-70
